sensor_id;sensor_type;location;lat;lon;timestamp;pressure;altitude;pressure_sealevel;temperature;humidity
78210;BME280;67485;48.816;9.930;2023-06-14T00:00:33;96377.41;;;14.36;48.61
78210;BME280;67485;48.816;9.930;2023-06-14T00:03:00;96383.63;;;14.17;49.59
78210;BME280;67485;48.816;9.930;2023-06-14T00:05:26;96383.47;;;14.01;50.41
78210;BME280;67485;48.816;9.930;2023-06-14T00:07:51;96378.28;;;14.00;50.33
78210;BME280;67485;48.816;9.930;2023-06-14T00:10:18;96382.59;;;14.01;50.04
78210;BME280;67485;48.816;9.930;2023-06-14T00:12:44;96388.69;;;13.84;50.88
78210;BME280;67485;48.816;9.930;2023-06-14T00:15:10;96375.44;;;13.66;50.95
78210;BME280;67485;48.816;9.930;2023-06-14T00:17:36;96376.94;;;13.72;50.81
78210;BME280;67485;48.816;9.930;2023-06-14T00:20:05;96380.78;;;13.84;50.72
78210;BME280;67485;48.816;9.930;2023-06-14T00:22:33;96378.72;;;13.90;50.53
78210;BME280;67485;48.816;9.930;2023-06-14T00:24:59;96375.41;;;14.04;50.04
78210;BME280;67485;48.816;9.930;2023-06-14T00:27:25;96373.56;;;14.06;49.92
78210;BME280;67485;48.816;9.930;2023-06-14T00:29:51;96377.13;;;14.05;50.17
78210;BME280;67485;48.816;9.930;2023-06-14T00:32:18;96374.53;;;13.86;50.45
78210;BME280;67485;48.816;9.930;2023-06-14T00:34:44;96372.19;;;13.61;51.34
78210;BME280;67485;48.816;9.930;2023-06-14T00:37:10;96372.75;;;13.68;51.23
78210;BME280;67485;48.816;9.930;2023-06-14T00:39:35;96373.25;;;13.76;50.97
78210;BME280;67485;48.816;9.930;2023-06-14T00:42:01;96376.00;;;13.73;51.03
78210;BME280;67485;48.816;9.930;2023-06-14T00:44:27;96366.63;;;13.67;51.06
78210;BME280;67485;48.816;9.930;2023-06-14T00:46:52;96376.13;;;13.51;51.54
78210;BME280;67485;48.816;9.930;2023-06-14T00:49:19;96373.13;;;13.39;51.73
78210;BME280;67485;48.816;9.930;2023-06-14T00:51:45;96372.81;;;13.47;51.75
78210;BME280;67485;48.816;9.930;2023-06-14T00:54:11;96375.88;;;13.36;51.78
78210;BME280;67485;48.816;9.930;2023-06-14T00:56:37;96376.34;;;13.25;52.17
78210;BME280;67485;48.816;9.930;2023-06-14T00:59:03;96374.88;;;13.20;52.54
78210;BME280;67485;48.816;9.930;2023-06-14T01:01:30;96366.97;;;12.99;53.51
78210;BME280;67485;48.816;9.930;2023-06-14T01:04:00;96369.88;;;12.93;54.13
78210;BME280;67485;48.816;9.930;2023-06-14T01:06:58;96376.03;;;12.92;54.00
78210;BME280;67485;48.816;9.930;2023-06-14T01:09:32;96370.94;;;12.89;54.07
78210;BME280;67485;48.816;9.930;2023-06-14T01:12:19;96373.81;;;12.82;54.15
78210;BME280;67485;48.816;9.930;2023-06-14T01:14:48;96378.09;;;12.85;54.03
78210;BME280;67485;48.816;9.930;2023-06-14T01:17:14;96373.97;;;12.79;54.15
78210;BME280;67485;48.816;9.930;2023-06-14T01:19:43;96383.53;;;12.60;54.90
78210;BME280;67485;48.816;9.930;2023-06-14T01:22:10;96376.31;;;12.65;54.37
78210;BME280;67485;48.816;9.930;2023-06-14T01:24:36;96377.38;;;12.81;54.29
78210;BME280;67485;48.816;9.930;2023-06-14T01:27:02;96375.41;;;12.87;53.83
78210;BME280;67485;48.816;9.930;2023-06-14T01:29:29;96373.41;;;12.92;53.63
78210;BME280;67485;48.816;9.930;2023-06-14T01:31:59;96364.50;;;12.96;53.72
78210;BME280;67485;48.816;9.930;2023-06-14T01:34:30;96367.31;;;12.91;53.78
78210;BME280;67485;48.816;9.930;2023-06-14T01:36:56;96363.09;;;12.67;54.44
78210;BME280;67485;48.816;9.930;2023-06-14T01:39:22;96361.63;;;12.59;54.57
78210;BME280;67485;48.816;9.930;2023-06-14T01:41:49;96372.13;;;12.61;54.03
78210;BME280;67485;48.816;9.930;2023-06-14T01:44:17;96367.38;;;12.69;54.21
78210;BME280;67485;48.816;9.930;2023-06-14T01:46:44;96371.59;;;12.73;53.51
78210;BME280;67485;48.816;9.930;2023-06-14T01:49:11;96375.22;;;12.71;54.00
78210;BME280;67485;48.816;9.930;2023-06-14T01:51:36;96370.84;;;12.49;54.63
78210;BME280;67485;48.816;9.930;2023-06-14T01:54:02;96375.44;;;12.44;54.62
78210;BME280;67485;48.816;9.930;2023-06-14T01:56:28;96376.97;;;12.49;54.44
78210;BME280;67485;48.816;9.930;2023-06-14T01:58:54;96377.81;;;12.50;54.71
78210;BME280;67485;48.816;9.930;2023-06-14T02:01:20;96377.06;;;12.46;54.92
78210;BME280;67485;48.816;9.930;2023-06-14T02:03:47;96373.78;;;12.41;54.62
78210;BME280;67485;48.816;9.930;2023-06-14T02:06:15;96377.47;;;12.37;54.84
78210;BME280;67485;48.816;9.930;2023-06-14T02:08:44;96378.19;;;12.41;54.84
78210;BME280;67485;48.816;9.930;2023-06-14T02:11:10;96375.84;;;12.33;55.54
78210;BME280;67485;48.816;9.930;2023-06-14T02:13:36;96375.34;;;12.45;54.97
78210;BME280;67485;48.816;9.930;2023-06-14T02:16:02;96378.13;;;12.42;55.25
78210;BME280;67485;48.816;9.930;2023-06-14T02:18:28;96370.50;;;12.36;55.74
78210;BME280;67485;48.816;9.930;2023-06-14T02:20:55;96367.94;;;12.35;55.10
78210;BME280;67485;48.816;9.930;2023-06-14T02:23:21;96370.81;;;12.28;55.61
78210;BME280;67485;48.816;9.930;2023-06-14T02:25:46;96370.53;;;11.90;57.54
78210;BME280;67485;48.816;9.930;2023-06-14T02:28:12;96375.97;;;11.86;57.24
78210;BME280;67485;48.816;9.930;2023-06-14T02:30:38;96371.66;;;11.83;57.59
78210;BME280;67485;48.816;9.930;2023-06-14T02:33:04;96370.44;;;12.15;56.16
78210;BME280;67485;48.816;9.930;2023-06-14T02:35:31;96378.56;;;12.09;56.11
78210;BME280;67485;48.816;9.930;2023-06-14T02:37:57;96376.31;;;11.76;57.75
78210;BME280;67485;48.816;9.930;2023-06-14T02:40:23;96375.06;;;11.63;58.08
78210;BME280;67485;48.816;9.930;2023-06-14T02:42:49;96376.88;;;11.84;56.96
78210;BME280;67485;48.816;9.930;2023-06-14T02:45:16;96372.25;;;11.91;57.08
78210;BME280;67485;48.816;9.930;2023-06-14T02:47:42;96381.09;;;11.89;57.35
78210;BME280;67485;48.816;9.930;2023-06-14T02:50:08;96378.59;;;11.86;57.58
78210;BME280;67485;48.816;9.930;2023-06-14T02:52:34;96379.28;;;11.91;57.01
78210;BME280;67485;48.816;9.930;2023-06-14T02:55:00;96386.22;;;11.92;57.00
78210;BME280;67485;48.816;9.930;2023-06-14T02:57:25;96376.25;;;12.02;57.16
78210;BME280;67485;48.816;9.930;2023-06-14T02:59:51;96380.00;;;11.94;57.19
78210;BME280;67485;48.816;9.930;2023-06-14T03:02:18;96382.59;;;11.96;57.03
78210;BME280;67485;48.816;9.930;2023-06-14T03:04:44;96382.38;;;12.02;56.75
78210;BME280;67485;48.816;9.930;2023-06-14T03:07:14;96386.22;;;11.92;56.88
78210;BME280;67485;48.816;9.930;2023-06-14T03:09:48;96378.69;;;11.82;56.87
78210;BME280;67485;48.816;9.930;2023-06-14T03:12:15;96383.84;;;11.86;57.05
78210;BME280;67485;48.816;9.930;2023-06-14T03:14:41;96381.56;;;11.76;57.62
78210;BME280;67485;48.816;9.930;2023-06-14T03:17:08;96386.56;;;11.82;56.76
78210;BME280;67485;48.816;9.930;2023-06-14T03:19:38;96377.13;;;11.78;56.93
78210;BME280;67485;48.816;9.930;2023-06-14T03:22:06;96383.38;;;11.74;56.91
78210;BME280;67485;48.816;9.930;2023-06-14T03:24:33;96381.31;;;11.82;56.88
78210;BME280;67485;48.816;9.930;2023-06-14T03:27:05;96387.94;;;11.69;57.55
78210;BME280;67485;48.816;9.930;2023-06-14T03:29:31;96387.91;;;11.71;57.94
78210;BME280;67485;48.816;9.930;2023-06-14T03:32:01;96392.66;;;11.61;58.07
78210;BME280;67485;48.816;9.930;2023-06-14T03:34:36;96397.44;;;11.73;57.38
78210;BME280;67485;48.816;9.930;2023-06-14T03:37:05;96398.66;;;11.64;57.91
78210;BME280;67485;48.816;9.930;2023-06-14T03:39:30;96392.38;;;11.45;58.90
78210;BME280;67485;48.816;9.930;2023-06-14T03:41:56;96384.88;;;11.34;59.38
78210;BME280;67485;48.816;9.930;2023-06-14T03:44:26;96392.84;;;11.07;60.38
78210;BME280;67485;48.816;9.930;2023-06-14T03:46:52;96389.84;;;10.93;61.07
78210;BME280;67485;48.816;9.930;2023-06-14T03:49:18;96395.13;;;10.91;61.31
78210;BME280;67485;48.816;9.930;2023-06-14T03:51:44;96393.28;;;10.95;61.16
78210;BME280;67485;48.816;9.930;2023-06-14T03:54:11;96399.22;;;11.00;61.40
78210;BME280;67485;48.816;9.930;2023-06-14T03:56:37;96405.06;;;11.07;61.25
78210;BME280;67485;48.816;9.930;2023-06-14T03:59:04;96408.66;;;11.04;61.34
78210;BME280;67485;48.816;9.930;2023-06-14T04:01:30;96421.81;;;10.77;62.52
78210;BME280;67485;48.816;9.930;2023-06-14T04:03:59;96424.97;;;10.62;63.22
78210;BME280;67485;48.816;9.930;2023-06-14T04:06:25;96423.00;;;10.94;61.97
78210;BME280;67485;48.816;9.930;2023-06-14T04:08:58;96425.81;;;11.14;61.42
78210;BME280;67485;48.816;9.930;2023-06-14T04:11:29;96426.66;;;11.15;61.16
78210;BME280;67485;48.816;9.930;2023-06-14T04:13:55;96425.09;;;11.34;60.49
78210;BME280;67485;48.816;9.930;2023-06-14T04:16:22;96433.16;;;11.54;60.85
78210;BME280;67485;48.816;9.930;2023-06-14T04:18:48;96431.44;;;11.52;60.64
78210;BME280;67485;48.816;9.930;2023-06-14T04:21:18;96440.22;;;11.51;61.41
78210;BME280;67485;48.816;9.930;2023-06-14T04:23:43;96433.50;;;11.68;60.14
78210;BME280;67485;48.816;9.930;2023-06-14T04:26:10;96441.72;;;11.82;60.29
78210;BME280;67485;48.816;9.930;2023-06-14T04:28:38;96443.13;;;11.91;60.48
78210;BME280;67485;48.816;9.930;2023-06-14T04:31:07;96434.16;;;11.98;60.05
78210;BME280;67485;48.816;9.930;2023-06-14T04:33:37;96437.06;;;11.89;60.28
78210;BME280;67485;48.816;9.930;2023-06-14T04:36:10;96436.59;;;12.03;59.75
78210;BME280;67485;48.816;9.930;2023-06-14T04:38:37;96443.13;;;11.91;60.50
78210;BME280;67485;48.816;9.930;2023-06-14T04:41:03;96439.66;;;11.67;62.20
78210;BME280;67485;48.816;9.930;2023-06-14T04:43:29;96435.19;;;11.69;62.58
78210;BME280;67485;48.816;9.930;2023-06-14T04:45:56;96437.44;;;11.80;62.10
78210;BME280;67485;48.816;9.930;2023-06-14T04:48:22;96443.50;;;11.82;61.91
78210;BME280;67485;48.816;9.930;2023-06-14T04:50:48;96450.16;;;11.91;61.43
78210;BME280;67485;48.816;9.930;2023-06-14T04:53:19;96450.88;;;11.96;61.52
78210;BME280;67485;48.816;9.930;2023-06-14T04:55:48;96453.81;;;12.10;60.66
78210;BME280;67485;48.816;9.930;2023-06-14T04:58:14;96448.22;;;12.20;61.19
78210;BME280;67485;48.816;9.930;2023-06-14T05:00:40;96462.16;;;12.44;60.19
78210;BME280;67485;48.816;9.930;2023-06-14T05:03:08;96453.72;;;12.36;60.03
78210;BME280;67485;48.816;9.930;2023-06-14T05:05:33;96464.72;;;12.23;60.25
78210;BME280;67485;48.816;9.930;2023-06-14T05:07:59;96452.63;;;12.41;60.12
78210;BME280;67485;48.816;9.930;2023-06-14T05:10:25;96450.91;;;12.62;59.28
78210;BME280;67485;48.816;9.930;2023-06-14T05:12:51;96451.63;;;12.66;59.67
78210;BME280;67485;48.816;9.930;2023-06-14T05:15:18;96460.19;;;12.71;59.65
78210;BME280;67485;48.816;9.930;2023-06-14T05:17:47;96456.97;;;12.85;59.40
78210;BME280;67485;48.816;9.930;2023-06-14T05:20:20;96462.31;;;13.04;58.92
78210;BME280;67485;48.816;9.930;2023-06-14T05:22:45;96456.53;;;13.17;58.74
78210;BME280;67485;48.816;9.930;2023-06-14T05:25:11;96462.63;;;13.39;58.49
78210;BME280;67485;48.816;9.930;2023-06-14T05:27:37;96459.53;;;13.50;57.78
78210;BME280;67485;48.816;9.930;2023-06-14T05:30:03;96460.41;;;13.70;57.46
78210;BME280;67485;48.816;9.930;2023-06-14T05:32:29;96468.25;;;14.09;56.35
78210;BME280;67485;48.816;9.930;2023-06-14T05:34:55;96479.66;;;14.29;56.03
78210;BME280;67485;48.816;9.930;2023-06-14T05:37:21;96471.97;;;14.43;55.69
78210;BME280;67485;48.816;9.930;2023-06-14T05:39:46;96478.91;;;14.64;55.59
78210;BME280;67485;48.816;9.930;2023-06-14T05:42:13;96474.09;;;14.91;55.53
78210;BME280;67485;48.816;9.930;2023-06-14T05:44:38;96470.22;;;14.98;54.67
78210;BME280;67485;48.816;9.930;2023-06-14T05:47:04;96474.03;;;15.45;53.75
78210;BME280;67485;48.816;9.930;2023-06-14T05:49:30;96476.41;;;15.85;52.81
78210;BME280;67485;48.816;9.930;2023-06-14T05:51:56;96480.47;;;16.40;51.09
78210;BME280;67485;48.816;9.930;2023-06-14T05:54:22;96471.09;;;16.34;50.54
78210;BME280;67485;48.816;9.930;2023-06-14T05:56:47;96475.31;;;16.21;50.75
78210;BME280;67485;48.816;9.930;2023-06-14T05:59:13;96475.28;;;15.89;51.74
78210;BME280;67485;48.816;9.930;2023-06-14T06:01:39;96473.72;;;16.02;52.29
78210;BME280;67485;48.816;9.930;2023-06-14T06:04:05;96483.19;;;16.38;51.19
78210;BME280;67485;48.816;9.930;2023-06-14T06:06:31;96472.94;;;16.32;51.25
78210;BME280;67485;48.816;9.930;2023-06-14T06:08:57;96475.50;;;16.18;51.04
78210;BME280;67485;48.816;9.930;2023-06-14T06:11:24;96467.66;;;16.32;50.45
78210;BME280;67485;48.816;9.930;2023-06-14T06:13:49;96467.66;;;16.64;49.72
78210;BME280;67485;48.816;9.930;2023-06-14T06:16:16;96477.91;;;16.54;49.67
78210;BME280;67485;48.816;9.930;2023-06-14T06:18:41;96474.47;;;16.84;48.94
78210;BME280;67485;48.816;9.930;2023-06-14T06:21:07;96479.44;;;17.21;47.86
78210;BME280;67485;48.816;9.930;2023-06-14T06:23:33;96479.47;;;17.36;47.98
78210;BME280;67485;48.816;9.930;2023-06-14T06:25:58;96473.47;;;17.48;47.65
78210;BME280;67485;48.816;9.930;2023-06-14T06:28:24;96480.69;;;17.30;47.94
78210;BME280;67485;48.816;9.930;2023-06-14T06:30:50;96479.53;;;17.64;47.44
78210;BME280;67485;48.816;9.930;2023-06-14T06:33:16;96479.56;;;18.22;45.97
78210;BME280;67485;48.816;9.930;2023-06-14T06:35:41;96474.81;;;18.42;45.69
78210;BME280;67485;48.816;9.930;2023-06-14T06:38:08;96487.09;;;17.85;46.27
78210;BME280;67485;48.816;9.930;2023-06-14T06:40:35;96477.84;;;17.78;47.18
78210;BME280;67485;48.816;9.930;2023-06-14T06:43:02;96480.94;;;18.42;46.09
78210;BME280;67485;48.816;9.930;2023-06-14T06:45:28;96484.28;;;18.31;45.46
78210;BME280;67485;48.816;9.930;2023-06-14T06:47:54;96487.63;;;18.62;45.32
78210;BME280;67485;48.816;9.930;2023-06-14T06:50:21;96480.81;;;19.00;45.02
78210;BME280;67485;48.816;9.930;2023-06-14T06:52:49;96479.09;;;18.72;45.14
78210;BME280;67485;48.816;9.930;2023-06-14T06:55:14;96482.94;;;19.08;44.30
78210;BME280;67485;48.816;9.930;2023-06-14T06:57:40;96487.41;;;19.07;44.28
78210;BME280;67485;48.816;9.930;2023-06-14T07:00:06;96485.06;;;19.56;43.61
78210;BME280;67485;48.816;9.930;2023-06-14T07:02:36;96490.69;;;19.51;43.67
78210;BME280;67485;48.816;9.930;2023-06-14T07:05:02;96492.69;;;20.01;42.73
78210;BME280;67485;48.816;9.930;2023-06-14T07:07:28;96493.16;;;19.80;43.36
78210;BME280;67485;48.816;9.930;2023-06-14T07:09:53;96497.75;;;20.30;42.09
78210;BME280;67485;48.816;9.930;2023-06-14T07:12:19;96492.78;;;20.49;40.71
78210;BME280;67485;48.816;9.930;2023-06-14T07:14:45;96494.28;;;20.90;40.36
78210;BME280;67485;48.816;9.930;2023-06-14T07:17:11;96501.69;;;20.74;40.09
78210;BME280;67485;48.816;9.930;2023-06-14T07:19:37;96497.94;;;20.39;40.11
78210;BME280;67485;48.816;9.930;2023-06-14T07:22:03;96500.50;;;20.41;40.38
78210;BME280;67485;48.816;9.930;2023-06-14T07:24:28;96506.03;;;20.25;41.56
78210;BME280;67485;48.816;9.930;2023-06-14T07:26:54;96508.31;;;20.55;41.28
78210;BME280;67485;48.816;9.930;2023-06-14T07:29:20;96504.28;;;21.00;40.16
78210;BME280;67485;48.816;9.930;2023-06-14T07:31:47;96515.88;;;20.99;40.52
78210;BME280;67485;48.816;9.930;2023-06-14T07:34:13;96515.81;;;21.12;40.41
78210;BME280;67485;48.816;9.930;2023-06-14T07:36:39;96515.56;;;21.39;39.64
78210;BME280;67485;48.816;9.930;2023-06-14T07:39:04;96520.81;;;21.76;39.09
78210;BME280;67485;48.816;9.930;2023-06-14T07:41:32;96524.00;;;22.04;38.70
78210;BME280;67485;48.816;9.930;2023-06-14T07:43:58;96515.22;;;21.79;37.52
78210;BME280;67485;48.816;9.930;2023-06-14T07:46:24;96524.03;;;22.15;37.99
78210;BME280;67485;48.816;9.930;2023-06-14T07:48:49;96520.28;;;22.63;37.62
78210;BME280;67485;48.816;9.930;2023-06-14T07:51:15;96523.53;;;22.33;37.82
78210;BME280;67485;48.816;9.930;2023-06-14T07:53:41;96519.66;;;22.14;37.53
78210;BME280;67485;48.816;9.930;2023-06-14T07:56:07;96514.09;;;22.17;38.47
78210;BME280;67485;48.816;9.930;2023-06-14T07:58:33;96517.38;;;22.55;37.23
78210;BME280;67485;48.816;9.930;2023-06-14T08:00:58;96517.25;;;22.23;37.95
78210;BME280;67485;48.816;9.930;2023-06-14T08:03:25;96524.63;;;22.30;37.49
78210;BME280;67485;48.816;9.930;2023-06-14T08:05:52;96521.84;;;22.77;36.18
78210;BME280;67485;48.816;9.930;2023-06-14T08:08:17;96520.41;;;22.62;36.99
78210;BME280;67485;48.816;9.930;2023-06-14T08:10:44;96517.75;;;22.50;36.48
78210;BME280;67485;48.816;9.930;2023-06-14T08:13:09;96520.16;;;23.31;35.01
78210;BME280;67485;48.816;9.930;2023-06-14T08:15:35;96521.63;;;23.13;35.39
78210;BME280;67485;48.816;9.930;2023-06-14T08:18:01;96533.25;;;22.34;35.61
78210;BME280;67485;48.816;9.930;2023-06-14T08:20:27;96527.44;;;22.29;36.20
78210;BME280;67485;48.816;9.930;2023-06-14T08:22:53;96530.06;;;21.95;36.10
78210;BME280;67485;48.816;9.930;2023-06-14T08:25:22;96521.22;;;22.85;34.20
78210;BME280;67485;48.816;9.930;2023-06-14T08:27:47;96530.88;;;22.42;34.64
78210;BME280;67485;48.816;9.930;2023-06-14T08:30:13;96529.84;;;22.66;34.35
78210;BME280;67485;48.816;9.930;2023-06-14T08:32:39;96527.78;;;22.70;33.96
78210;BME280;67485;48.816;9.930;2023-06-14T08:35:05;96526.19;;;22.90;34.86
78210;BME280;67485;48.816;9.930;2023-06-14T08:37:32;96531.06;;;23.28;34.42
78210;BME280;67485;48.816;9.930;2023-06-14T08:39:58;96527.94;;;22.45;35.29
78210;BME280;67485;48.816;9.930;2023-06-14T08:42:24;96538.34;;;22.26;35.69
78210;BME280;67485;48.816;9.930;2023-06-14T08:44:50;96527.53;;;23.39;34.58
78210;BME280;67485;48.816;9.930;2023-06-14T08:47:16;96531.72;;;23.09;33.96
78210;BME280;67485;48.816;9.930;2023-06-14T08:49:46;96532.63;;;23.85;33.30
78210;BME280;67485;48.816;9.930;2023-06-14T08:52:13;96534.09;;;23.89;32.27
78210;BME280;67485;48.816;9.930;2023-06-14T08:54:41;96538.94;;;22.97;34.06
78210;BME280;67485;48.816;9.930;2023-06-14T08:57:12;96528.94;;;23.43;33.67
78210;BME280;67485;48.816;9.930;2023-06-14T08:59:47;96534.22;;;24.08;33.08
78210;BME280;67485;48.816;9.930;2023-06-14T09:02:18;96532.88;;;24.14;32.24
78210;BME280;67485;48.816;9.930;2023-06-14T09:04:47;96531.38;;;24.00;31.99
78210;BME280;67485;48.816;9.930;2023-06-14T09:07:15;96536.53;;;23.92;31.88
78210;BME280;67485;48.816;9.930;2023-06-14T09:09:41;96531.38;;;24.00;32.31
78210;BME280;67485;48.816;9.930;2023-06-14T09:12:11;96531.34;;;23.58;33.40
78210;BME280;67485;48.816;9.930;2023-06-14T09:14:38;96539.09;;;24.76;31.08
78210;BME280;67485;48.816;9.930;2023-06-14T09:17:05;96526.75;;;25.93;28.95
78210;BME280;67485;48.816;9.930;2023-06-14T09:19:31;96537.06;;;26.08;29.07
78210;BME280;67485;48.816;9.930;2023-06-14T09:21:57;96526.06;;;27.04;27.07
78210;BME280;67485;48.816;9.930;2023-06-14T09:24:25;96527.09;;;27.03;26.57
78210;BME280;67485;48.816;9.930;2023-06-14T09:26:51;96527.91;;;25.51;28.53
78210;BME280;67485;48.816;9.930;2023-06-14T09:29:17;96533.69;;;26.05;28.40
78210;BME280;67485;48.816;9.930;2023-06-14T09:31:46;96532.16;;;25.54;29.24
78210;BME280;67485;48.816;9.930;2023-06-14T09:34:12;96547.03;;;25.07;29.06
78210;BME280;67485;48.816;9.930;2023-06-14T09:36:39;96540.47;;;24.71;29.83
78210;BME280;67485;48.816;9.930;2023-06-14T09:39:05;96538.53;;;25.53;28.68
78210;BME280;67485;48.816;9.930;2023-06-14T09:41:34;96545.94;;;25.30;28.79
78210;BME280;67485;48.816;9.930;2023-06-14T09:44:01;96549.59;;;25.29;29.94
78210;BME280;67485;48.816;9.930;2023-06-14T09:46:28;96549.50;;;25.40;30.63
78210;BME280;67485;48.816;9.930;2023-06-14T09:48:57;96541.44;;;26.09;29.51
78210;BME280;67485;48.816;9.930;2023-06-14T09:51:24;96544.09;;;26.66;27.30
78210;BME280;67485;48.816;9.930;2023-06-14T09:53:50;96532.13;;;26.88;27.42
78210;BME280;67485;48.816;9.930;2023-06-14T09:56:28;96539.50;;;25.62;29.30
78210;BME280;67485;48.816;9.930;2023-06-14T09:58:58;96544.50;;;26.33;29.24
78210;BME280;67485;48.816;9.930;2023-06-14T10:01:25;96533.09;;;27.15;26.82
78210;BME280;67485;48.816;9.930;2023-06-14T10:03:55;96534.56;;;27.27;26.48
78210;BME280;67485;48.816;9.930;2023-06-14T10:06:23;96540.88;;;26.90;26.57
78210;BME280;67485;48.816;9.930;2023-06-14T10:08:52;96544.66;;;26.97;26.77
78210;BME280;67485;48.816;9.930;2023-06-14T10:11:21;96534.19;;;27.22;25.59
78210;BME280;67485;48.816;9.930;2023-06-14T10:13:47;96535.03;;;26.77;25.71
78210;BME280;67485;48.816;9.930;2023-06-14T10:16:23;96541.44;;;25.99;27.09
78210;BME280;67485;48.816;9.930;2023-06-14T10:18:58;96526.47;;;27.09;26.58
78210;BME280;67485;48.816;9.930;2023-06-14T10:21:46;96537.19;;;26.91;26.87
78210;BME280;67485;48.816;9.930;2023-06-14T10:24:19;96527.09;;;27.21;27.15
78210;BME280;67485;48.816;9.930;2023-06-14T10:26:53;96530.66;;;26.66;26.97
78210;BME280;67485;48.816;9.930;2023-06-14T10:29:20;96537.84;;;26.65;27.33
78210;BME280;67485;48.816;9.930;2023-06-14T10:31:47;96532.97;;;27.34;26.75
78210;BME280;67485;48.816;9.930;2023-06-14T10:34:30;96530.31;;;28.15;25.45
78210;BME280;67485;48.816;9.930;2023-06-14T10:37:12;96523.28;;;28.22;24.98
78210;BME280;67485;48.816;9.930;2023-06-14T10:39:43;96516.63;;;27.90;25.48
78210;BME280;67485;48.816;9.930;2023-06-14T10:42:09;96513.66;;;27.39;25.86
78210;BME280;67485;48.816;9.930;2023-06-14T10:47:07;96506.25;;;28.13;25.04
78210;BME280;67485;48.816;9.930;2023-06-14T10:52:08;96506.03;;;27.44;25.63
78210;BME280;67485;48.816;9.930;2023-06-14T10:54:37;96513.53;;;28.56;24.54
78210;BME280;67485;48.816;9.930;2023-06-14T10:57:06;96509.56;;;30.43;21.74
78210;BME280;67485;48.816;9.930;2023-06-14T10:59:32;96514.00;;;30.28;22.04
78210;BME280;67485;48.816;9.930;2023-06-14T11:04:50;96517.53;;;28.52;24.21
78210;BME280;67485;48.816;9.930;2023-06-14T11:07:52;96511.78;;;28.46;24.13
78210;BME280;67485;48.816;9.930;2023-06-14T11:10:37;96513.31;;;26.88;26.02
78210;BME280;67485;48.816;9.930;2023-06-14T11:13:04;96527.09;;;26.65;26.21
78210;BME280;67485;48.816;9.930;2023-06-14T11:15:30;96522.53;;;25.22;27.57
78210;BME280;67485;48.816;9.930;2023-06-14T11:17:57;96508.94;;;26.12;26.82
78210;BME280;67485;48.816;9.930;2023-06-14T11:20:27;96518.63;;;26.32;25.94
78210;BME280;67485;48.816;9.930;2023-06-14T11:22:53;96517.81;;;27.33;25.15
78210;BME280;67485;48.816;9.930;2023-06-14T11:25:20;96505.66;;;27.83;24.47
78210;BME280;67485;48.816;9.930;2023-06-14T11:27:46;96502.00;;;28.72;24.36
78210;BME280;67485;48.816;9.930;2023-06-14T11:30:13;96507.47;;;28.62;23.74
78210;BME280;67485;48.816;9.930;2023-06-14T11:32:39;96494.88;;;28.62;24.21
78210;BME280;67485;48.816;9.930;2023-06-14T11:35:05;96507.41;;;28.11;24.09
78210;BME280;67485;48.816;9.930;2023-06-14T11:37:32;96510.09;;;28.11;24.03
78210;BME280;67485;48.816;9.930;2023-06-14T11:40:03;96509.88;;;27.86;24.76
78210;BME280;67485;48.816;9.930;2023-06-14T11:42:39;96515.41;;;26.94;25.51
78210;BME280;67485;48.816;9.930;2023-06-14T11:45:10;96514.09;;;26.70;25.28
78210;BME280;67485;48.816;9.930;2023-06-14T11:47:38;96517.25;;;26.56;25.44
78210;BME280;67485;48.816;9.930;2023-06-14T11:50:07;96509.22;;;26.84;25.57
78210;BME280;67485;48.816;9.930;2023-06-14T11:52:36;96505.44;;;28.21;23.51
78210;BME280;67485;48.816;9.930;2023-06-14T11:55:02;96499.22;;;28.55;23.21
78210;BME280;67485;48.816;9.930;2023-06-14T11:57:33;96498.38;;;27.76;23.53
78210;BME280;67485;48.816;9.930;2023-06-14T12:00:00;96498.03;;;27.07;23.23
78210;BME280;67485;48.816;9.930;2023-06-14T12:02:37;96503.00;;;25.98;25.50
78210;BME280;67485;48.816;9.930;2023-06-14T12:05:06;96499.88;;;26.13;25.70
78210;BME280;67485;48.816;9.930;2023-06-14T12:07:38;96509.63;;;26.51;25.00
78210;BME280;67485;48.816;9.930;2023-06-14T12:10:08;96502.63;;;25.83;25.40
78210;BME280;67485;48.816;9.930;2023-06-14T12:12:36;96512.34;;;25.16;26.90
78210;BME280;67485;48.816;9.930;2023-06-14T12:15:06;96498.22;;;24.53;27.63
78210;BME280;67485;48.816;9.930;2023-06-14T12:17:36;96501.22;;;25.69;25.99
78210;BME280;67485;48.816;9.930;2023-06-14T12:20:09;96506.69;;;25.87;25.47
78210;BME280;67485;48.816;9.930;2023-06-14T12:22:58;96499.59;;;26.53;24.35
78210;BME280;67485;48.816;9.930;2023-06-14T12:25:31;96498.50;;;26.46;24.56
78210;BME280;67485;48.816;9.930;2023-06-14T12:28:06;96510.38;;;25.86;25.26
78210;BME280;67485;48.816;9.930;2023-06-14T12:30:33;96501.69;;;27.33;24.56
78210;BME280;67485;48.816;9.930;2023-06-14T12:32:59;96492.53;;;27.62;23.97
78210;BME280;67485;48.816;9.930;2023-06-14T12:35:26;96498.41;;;28.28;23.58
78210;BME280;67485;48.816;9.930;2023-06-14T12:37:51;96501.38;;;26.63;24.25
78210;BME280;67485;48.816;9.930;2023-06-14T12:40:17;96500.31;;;27.29;24.08
78210;BME280;67485;48.816;9.930;2023-06-14T12:42:44;96494.88;;;26.93;24.22
78210;BME280;67485;48.816;9.930;2023-06-14T12:45:10;96499.97;;;27.32;23.87
78210;BME280;67485;48.816;9.930;2023-06-14T12:47:36;96505.31;;;26.68;24.75
78210;BME280;67485;48.816;9.930;2023-06-14T12:50:02;96503.47;;;27.43;24.17
78210;BME280;67485;48.816;9.930;2023-06-14T12:52:27;96503.22;;;27.72;24.17
78210;BME280;67485;48.816;9.930;2023-06-14T12:54:53;96498.75;;;27.09;24.42
78210;BME280;67485;48.816;9.930;2023-06-14T12:57:19;96497.19;;;26.88;24.73
78210;BME280;67485;48.816;9.930;2023-06-14T12:59:44;96499.94;;;26.78;25.39
78210;BME280;67485;48.816;9.930;2023-06-14T13:02:16;96506.31;;;26.40;25.98
78210;BME280;67485;48.816;9.930;2023-06-14T13:04:43;96506.13;;;26.79;25.51
78210;BME280;67485;48.816;9.930;2023-06-14T13:07:09;96517.88;;;25.83;26.73
78210;BME280;67485;48.816;9.930;2023-06-14T13:09:36;96513.88;;;24.99;27.98